^^
Your Local Weather - Clay, NY Station Historical Data
Daily Summary for January 8, 2018 Units:  Metric    English   Both
« Previous Day
Next Day »
Daily Weekly Monthly Yearly Custom
  High: Low: Average:
Temperature: 3.3 °C -3.7 °C 1.2 °C
Dew Point: -0.2 °C -9.5 °C -2.7 °C
Humidity: 87% 52% 76%
Wind Speed: 9.7km/h 1.6km/h 4.7km/h
Wind Gust: 16.1km/h - -
Wind- - SW
Pressure: 1016.8 hPa 1009 hPa -
Precipitation: 2.54 mm    
Historical Graphs
 
 
Tabular Data for January 8, 2018
Time Temperature Dew Point Pressure Wind Wind Speed Wind Gust Humidity Rainfall Rate (Hourly) solar
04:18 -0.9 °C -9.5 °C 1016.5 hPa SSW 1.6 km/h 3.2 km/h 52% 0 mm 0 W/m2
04:20 -0.8 °C -9.5 °C 1016.8 hPa SSW 1.6 km/h 4.8 km/h 52% 0 mm 0 W/m2
04:38 -0.4 °C -8.9 °C 1016.1 hPa SW 3.2 km/h 6.4 km/h 53% 0 mm 0 W/m2
04:40 -0.4 °C -8.6 °C 1016.5 hPa South 3.2 km/h 6.4 km/h 54% 0 mm 0 W/m2
04:46 -0.4 °C -8.3 °C 1016.1 hPa South 4.8 km/h 6.4 km/h 55% 0 mm 0 W/m2
04:54 -0.5 °C -7.8 °C 1016.5 hPa SSW 4.8 km/h 4.8 km/h 58% 0 mm 0 W/m2
05:00 -0.6 °C -7.4 °C 1016.5 hPa South 4.8 km/h 4.8 km/h 60% 0 mm 0 W/m2
05:06 -0.6 °C -7.6 °C 1016.5 hPa SSE 4.8 km/h 6.4 km/h 59% 0 mm 0 W/m2
05:14 -0.8 °C -7.8 °C 1016.5 hPa SSE 4.8 km/h 9.7 km/h 59% 0 mm 0 W/m2
05:24 -1.3 °C -7.2 °C 1016.5 hPa South 6.4 km/h 6.4 km/h 64% 0 mm 0 W/m2
05:30 -1.8 °C -6.9 °C 1016.5 hPa South 6.4 km/h 6.4 km/h 68% 0 mm 0 W/m2
05:38 -2.7 °C -6.4 °C 1016.5 hPa South 9.7 km/h 12.9 km/h 76% 0 mm 0 W/m2
05:46 -3.2 °C -5.9 °C 1016.5 hPa SSE 8 km/h 12.9 km/h 81% 0 mm 0 W/m2
06:03 -3.5 °C -5.5 °C 1016.5 hPa SE 6.4 km/h 6.4 km/h 86% 0 mm 0 W/m2
06:08 -3.6 °C -5.6 °C 1016.5 hPa SSE 4.8 km/h 6.4 km/h 86% 0 mm 0 W/m2
06:16 -3.7 °C -5.5 °C 1016.5 hPa South 4.8 km/h 6.4 km/h 87% 0 mm 0 W/m2
06:26 -3.7 °C -5.6 °C 1016.1 hPa SE 4.8 km/h 8 km/h 87% 0 mm 0 W/m2
06:58 -3.4 °C -5.2 °C 1015.1 hPa SSE 4.8 km/h 6.4 km/h 87% 0 mm 0 W/m2
07:06 -3.4 °C -5.4 °C 1015.1 hPa East 3.2 km/h 4.8 km/h 86% 0 mm 0 W/m2
07:22 -3.6 °C -5.6 °C 1014.8 hPa SE 3.2 km/h 4.8 km/h 86% 0 mm 0 W/m2
07:28 -3.7 °C -5.7 °C 1014.4 hPa ESE 4.8 km/h 6.4 km/h 86% 0 mm 0 W/m2
08:56 -2.1 °C -7.4 °C 1014.1 hPa SE 6.4 km/h 9.7 km/h 67% 0 mm 0 W/m2
10:40 -2.1 °C -5.1 °C 1012.1 hPa SSE 4.8 km/h 4.8 km/h 80% 0 mm 9 W/m2
11:03 -1.9 °C -4.3 °C 1011.7 hPa SSW 3.2 km/h 6.4 km/h 84% 0 mm 11 W/m2
11:30 -0.8 °C -3.2 °C 1011.1 hPa SW 3.2 km/h 6.4 km/h 84% 0 mm 25 W/m2
11:38 -0.4 °C -3.3 °C 1010.7 hPa South 4.8 km/h 6.4 km/h 81% 0 mm 23 W/m2
11:44 0.1 °C -3.6 °C 1010.4 hPa SSW 4.8 km/h 8 km/h 76% 0 mm 25 W/m2
11:50 0.7 °C -4 °C 1010.4 hPa SW 6.4 km/h 6.4 km/h 71% 0 mm 28 W/m2
11:56 1.1 °C -4.2 °C 1010.4 hPa South 8 km/h 11.3 km/h 68% 0 mm 23 W/m2
12:06 1.3 °C -4.3 °C 1010 hPa SSW 8 km/h 16.1 km/h 66% 0 mm 21 W/m2
12:12 1.4 °C -4.4 °C 1010 hPa SSW 8 km/h 11.3 km/h 65% 0 mm 18 W/m2
12:20 1.5 °C -4.4 °C 1010 hPa SW 8 km/h 8 km/h 65% 0 mm 16 W/m2
12:26 1.6 °C -4.3 °C 1010 hPa SSW 6.4 km/h 9.7 km/h 65% 0 mm 14 W/m2
12:38 1.8 °C -4.3 °C 1009.7 hPa WSW 8 km/h 12.9 km/h 64% 0 mm 14 W/m2
12:46 1.8 °C -4.3 °C 1009.4 hPa SSW 6.4 km/h 12.9 km/h 64% 0 mm 12 W/m2
12:50 1.8 °C -4.1 °C 1009.4 hPa SSW 8 km/h 8 km/h 65% 0 mm 12 W/m2
12:56 1.9 °C -4 °C 1009.4 hPa SW 8 km/h 9.7 km/h 65% 0 mm 11 W/m2
13:02 1.9 °C -4 °C 1009.4 hPa SSW 8 km/h 8 km/h 65% 0 mm 11 W/m2
13:10 1.9 °C -3.8 °C 1009.4 hPa SW 6.4 km/h 6.4 km/h 66% 0 mm 9 W/m2
13:16 1.9 °C -3.8 °C 1009.4 hPa SSW 6.4 km/h 9.7 km/h 66% 0 mm 9 W/m2
13:22 1.9 °C -3.4 °C 1009.4 hPa SSW 6.4 km/h 6.4 km/h 68% 0 mm 9 W/m2
13:28 1.9 °C -3.3 °C 1009 hPa SSW 6.4 km/h 6.4 km/h 68% 0 mm 12 W/m2
13:30 2 °C -3.3 °C 1009 hPa SW 6.4 km/h 6.4 km/h 68% 0 mm 12 W/m2
13:38 2 °C -3.1 °C 1009 hPa South 4.8 km/h 8 km/h 69% 0 mm 11 W/m2
13:44 2.1 °C -3 °C 1009 hPa SSW 4.8 km/h 6.4 km/h 69% 0 mm 9 W/m2
13:54 2.2 °C -2.7 °C 1009 hPa SW 4.8 km/h 14.5 km/h 70% 0 mm 14 W/m2
14:03 2.2 °C -2.7 °C 1009.4 hPa SW 4.8 km/h 9.7 km/h 70% 0 mm 11 W/m2
14:10 2.3 °C -2.6 °C 1009.4 hPa SSW 4.8 km/h 4.8 km/h 70% 0 mm 14 W/m2
14:16 2.3 °C -2.4 °C 1009.4 hPa SSW 3.2 km/h 6.4 km/h 71% 0 mm 14 W/m2
14:22 2.4 °C -2.3 °C 1009.4 hPa SW 4.8 km/h 11.3 km/h 71% 0 mm 21 W/m2
14:28 2.4 °C -2.3 °C 1009 hPa South 4.8 km/h 11.3 km/h 71% 0 mm 19 W/m2
14:34 2.6 °C -2.2 °C 1009 hPa SSW 6.4 km/h 6.4 km/h 71% 0 mm 23 W/m2
14:42 2.6 °C -2.2 °C 1009.4 hPa SSW 4.8 km/h 6.4 km/h 71% 0 mm 26 W/m2
14:48 2.6 °C -2 °C 1009.4 hPa SSW 3.2 km/h 6.4 km/h 72% 0 mm 25 W/m2
14:54 2.6 °C -2 °C 1009.4 hPa SSW 3.2 km/h 6.4 km/h 72% 0 mm 21 W/m2
15:00 2.5 °C -2.1 °C 1009.4 hPa SSW 3.2 km/h 4.8 km/h 72% 0 mm 23 W/m2
15:10 2.6 °C -2 °C 1009.4 hPa South 4.8 km/h 6.4 km/h 72% 0 mm 21 W/m2
16:46 3.3 °C -1.2 °C 1010 hPa WSW 8 km/h 14.5 km/h 72% 0 mm 0 W/m2
17:28 3.2 °C -1.2 °C 1010.4 hPa SW 6.4 km/h 8 km/h 73% 0 mm 0 W/m2
17:46 3.2 °C -1.2 °C 1010.4 hPa WSW 6.4 km/h 14.5 km/h 73% 0 mm 0 W/m2
18:04 3.1 °C -1.1 °C 1010.4 hPa West 4.8 km/h 6.4 km/h 74% 0 mm 0 W/m2
18:14 3.1 °C -0.9 °C 1010.7 hPa West 4.8 km/h 9.7 km/h 75% 0 mm 0 W/m2
18:50 2.9 °C -0.9 °C 1011.1 hPa West 4.8 km/h 4.8 km/h 76% 0 mm 0 W/m2
19:20 2.7 °C -0.7 °C 1011.1 hPa WSW 1.6 km/h 1.6 km/h 78% 0 mm 0 W/m2
19:38 2.7 °C -0.6 °C 1011.4 hPa West 3.2 km/h 4.8 km/h 79% 0 mm 0 W/m2
19:46 2.7 °C -0.6 °C 1011.4 hPa WNW 3.2 km/h 4.8 km/h 79% 0 mm 0 W/m2
19:58 2.5 °C -0.8 °C 1011.4 hPa NW 1.6 km/h 3.2 km/h 79% 0 mm 0 W/m2
20:04 2.4 °C -0.7 °C 1011.4 hPa NW 1.6 km/h 6.4 km/h 80% 0 mm 0 W/m2
20:06 2.4 °C -0.7 °C 1011.4 hPa NW 1.6 km/h 6.4 km/h 80% 0 mm 0 W/m2
20:12 2.4 °C -0.7 °C 1011.4 hPa West 1.6 km/h 3.2 km/h 80% 0 mm 0 W/m2
20:18 2.5 °C -0.6 °C 1011.4 hPa WNW 3.2 km/h 4.8 km/h 80% 0 mm 0 W/m2
20:24 2.5 °C -0.6 °C 1011.4 hPa West 3.2 km/h 6.4 km/h 80% 0 mm 0 W/m2
20:26 2.4 °C -0.5 °C 1011.4 hPa WNW 4.8 km/h 8 km/h 81% 0 mm 0 W/m2
20:28 2.4 °C -0.5 °C 1011.4 hPa WNW 6.4 km/h 8 km/h 81% 0 mm 0 W/m2
20:34 2.3 °C -0.6 °C 1011.4 hPa WNW 4.8 km/h 6.4 km/h 81% 0 mm 0 W/m2
20:42 2.2 °C -0.4 °C 1011.7 hPa West 3.2 km/h 3.2 km/h 83% 0 mm 0 W/m2
20:46 2.1 °C -0.6 °C 1011.7 hPa WNW 3.2 km/h 4.8 km/h 83% 0 mm 0 W/m2
20:52 1.9 °C -0.5 °C 1011.7 hPa WNW 1.6 km/h 3.2 km/h 84% 0 mm 0 W/m2
20:56 1.8 °C -0.4 °C 1011.7 hPa WSW 1.6 km/h 4.8 km/h 85% 0 mm 0 W/m2
21:04 1.8 °C -0.3 °C 1011.7 hPa West 3.2 km/h 6.4 km/h 86% 0 mm 0 W/m2
21:10 1.7 °C -0.4 °C 1011.7 hPa WSW 3.2 km/h 3.2 km/h 86% 0 mm 0 W/m2
21:14 1.7 °C -0.4 °C 1011.7 hPa WSW 3.2 km/h 3.2 km/h 86% 0 mm 0 W/m2
21:22 1.6 °C -0.3 °C 1011.7 hPa West 3.2 km/h 3.2 km/h 87% 0 mm 0 W/m2
21:30 1.6 °C -0.3 °C 1011.7 hPa West 3.2 km/h 3.2 km/h 87% 0 mm 0 W/m2
21:36 1.6 °C -0.4 °C 1011.7 hPa West 3.2 km/h 4.8 km/h 87% 1.02 mm 0 W/m2
21:38 1.6 °C -0.4 °C 1011.7 hPa West 1.6 km/h 4.8 km/h 87% 1.02 mm 0 W/m2
21:40 1.6 °C -0.4 °C 1011.7 hPa West 1.6 km/h 1.6 km/h 87% 1.02 mm 0 W/m2
21:46 1.6 °C -0.4 °C 1011.7 hPa WSW 1.6 km/h 3.2 km/h 87% 1.02 mm 0 W/m2
21:56 1.6 °C -0.4 °C 1011.7 hPa West 3.2 km/h 4.8 km/h 87% 0 mm 0 W/m2
22:00 1.6 °C -0.4 °C 1011.7 hPa West 1.6 km/h 3.2 km/h 87% 0 mm 0 W/m2
22:04 1.6 °C -0.3 °C 1011.4 hPa WNW 1.6 km/h 6.4 km/h 87% 0 mm 0 W/m2
22:08 1.6 °C -0.3 °C 1011.7 hPa West 1.6 km/h 6.4 km/h 87% 0 mm 0 W/m2
22:16 1.7 °C -0.2 °C 1011.7 hPa West 3.2 km/h 3.2 km/h 87% 0 mm 0 W/m2
22:18 1.8 °C -0.3 °C 1011.7 hPa West 3.2 km/h 3.2 km/h 86% 0 mm 0 W/m2
22:20 1.8 °C -0.3 °C 1011.7 hPa NW 3.2 km/h 3.2 km/h 86% 0 mm 0 W/m2
22:24 1.8 °C -0.3 °C 1011.7 hPa WSW 4.8 km/h 4.8 km/h 86% 0 mm 0 W/m2
22:26 1.8 °C -0.4 °C 1011.7 hPa WSW 3.2 km/h 4.8 km/h 85% 0 mm 0 W/m2
22:32 1.9 °C -0.6 °C 1011.7 hPa WSW 3.2 km/h 4.8 km/h 84% 0 mm 0 W/m2
22:34 1.9 °C -0.5 °C 1011.7 hPa West 3.2 km/h 8 km/h 84% 0 mm 0 W/m2
22:36 1.9 °C -0.5 °C 1011.7 hPa West 4.8 km/h 8 km/h 84% 0 mm 0 W/m2
22:42 2 °C -0.6 °C 1011.7 hPa West 4.8 km/h 4.8 km/h 83% 0 mm 0 W/m2
22:44 2.1 °C -0.6 °C 1011.7 hPa WSW 4.8 km/h 4.8 km/h 83% 0 mm 0 W/m2
22:48 2.1 °C -0.7 °C 1011.7 hPa WNW 4.8 km/h 4.8 km/h 82% 0 mm 0 W/m2
22:52 2.1 °C -0.7 °C 1011.7 hPa West 4.8 km/h 4.8 km/h 82% 0 mm 0 W/m2
22:56 2.1 °C -0.8 °C 1011.7 hPa WNW 4.8 km/h 6.4 km/h 81% 0 mm 0 W/m2
23:00 2.2 °C -0.9 °C 1011.7 hPa WNW 4.8 km/h 6.4 km/h 80% 0 mm 0 W/m2
23:12 2.2 °C -1.2 °C 1011.7 hPa West 3.2 km/h 4.8 km/h 78% 0 mm 0 W/m2
23:14 2.2 °C -1.2 °C 1011.7 hPa West 3.2 km/h 6.4 km/h 78% 0 mm 0 W/m2
23:28 2.3 °C -1.3 °C 1011.7 hPa WSW 6.4 km/h 8 km/h 77% 0 mm 0 W/m2
23:32 2.3 °C -1.3 °C 1011.7 hPa WNW 6.4 km/h 8 km/h 77% 0 mm 0 W/m2
23:34 2.3 °C -1.5 °C 1011.7 hPa WNW 6.4 km/h 8 km/h 76% 0 mm 0 W/m2
23:36 2.3 °C -1.5 °C 1011.7 hPa WSW 6.4 km/h 8 km/h 76% 0 mm 0 W/m2
23:38 2.3 °C -1.5 °C 1011.7 hPa NW 6.4 km/h 8 km/h 76% 0 mm 0 W/m2
23:44 2.3 °C -1.5 °C 1011.7 hPa West 6.4 km/h 9.7 km/h 76% 0 mm 0 W/m2
23:52 2.2 °C -1.6 °C 1011.7 hPa WSW 4.8 km/h 6.4 km/h 76% 0 mm 0 W/m2
23:54 2.2 °C -1.6 °C 1011.7 hPa WSW 4.8 km/h 6.4 km/h 76% 0 mm 0 W/m2
23:56 2.2 °C -1.6 °C 1011.7 hPa WSW 4.8 km/h 6.4 km/h 76% 0 mm 0 W/m2
23:58 2.2 °C -1.6 °C 1011.7 hPa West 4.8 km/h 6.4 km/h 76% 0 mm 0 W/m2
Country Meadow, Clay, NY, USA
Compliments of Weather Underground - 2 mb